Time;durP1;ratioP1;P1;durP2;ratioP2;P2;SDS_P1;SDS_P2;PMS_P1;PMS_P2;Temp;Humidity;BMP_temperature;BMP_pressure;BME280_temperature;BME280_humidity;BME280_pressure;Samples;Min_cycle;Max_cycle;Signal;HPM_P1;HPM_P2
2022/01/25 00:24:21;;;;;;;25.33;17.90;;;7.30;72.50;;;;;;5064740;28;20043;-82
2022/01/25 00:27:03;;;;;;;25.33;19.00;;;7.30;72.70;;;;;;5067989;28;20515;-80
2022/01/25 00:29:46;;;;;;;22.50;15.95;;;7.30;72.80;;;;;;5073625;28;20033;-81
2022/01/25 00:32:12;;;;;;;24.85;17.40;;;7.30;72.80;;;;;;5067218;28;20052;-81
2022/01/25 00:34:38;;;;;;;21.45;15.75;;;7.20;72.90;;;;;;5070674;28;20071;-80
2022/01/25 00:37:04;;;;;;;25.83;19.23;;;7.20;72.90;;;;;;5062967;28;20052;-80
2022/01/25 00:39:30;;;;;;;25.95;18.83;;;7.20;72.60;;;;;;5064178;28;20063;-81
2022/01/25 00:41:55;;;;;;;24.35;17.58;;;7.10;72.70;;;;;;5065684;28;20467;-80
2022/01/25 00:44:21;;;;;;;24.30;17.38;;;7.10;72.70;;;;;;5070514;28;20368;-81
2022/01/25 00:46:47;;;;;;;25.48;18.50;;;7.20;72.80;;;;;;5065841;28;20115;-79
2022/01/25 00:49:21;;;;;;;25.35;18.08;;;7.20;72.70;;;;;;5065744;28;20020;-79
2022/01/25 00:51:59;;;;;;;22.38;16.30;;;7.20;72.60;;;;;;5069300;28;20090;-81
2022/01/25 00:56:51;;;;;;;19.52;14.10;;;7.20;72.70;;;;;;5063318;28;20039;-81
2022/01/25 00:59:20;;;;;;;22.35;16.30;;;7.10;72.60;;;;;;5065804;28;20044;-80
2022/01/25 01:01:47;;;;;;;26.90;19.83;;;7.10;72.40;;;;;;5060153;28;20090;-81
2022/01/25 01:04:13;;;;;;;24.60;18.38;;;7.20;72.30;;;;;;5064332;28;20021;-80
2022/01/25 01:06:42;;;;;;;23.38;17.17;;;7.20;72.20;;;;;;5062578;28;20032;-81
2022/01/25 01:09:12;;;;;;;19.25;14.48;;;7.20;72.10;;;;;;5063494;28;20064;-80
2022/01/25 01:11:46;;;;;;;24.77;18.00;;;7.20;72.10;;;;;;5056661;28;20033;-79
2022/01/25 01:14:23;;;;;;;26.17;18.70;;;7.10;71.80;;;;;;5078186;28;20049;-82
2022/01/25 01:17:13;;;;;;;24.77;17.27;;;7.10;71.90;;;;;;5066672;28;20028;-81
2022/01/25 01:37:08;;;;;;;28.67;21.52;;;7.10;71.90;;;;;;5068768;28;20509;-81
2022/01/25 01:44:02;;;;;;;22.75;16.23;;;7.10;72.00;;;;;;5069961;28;20769;-80
2022/01/25 01:46:41;;;;;;;21.33;15.52;;;7.10;71.90;;;;;;5056152;28;20039;-81
2022/01/25 01:49:07;;;;;;;28.38;20.10;;;7.10;71.80;;;;;;5061715;28;20023;-81
2022/01/25 01:51:37;;;;;;;23.27;16.67;;;7.00;71.20;;;;;;5066609;28;20021;-81
2022/01/25 01:54:15;;;;;;;23.10;16.75;;;7.00;71.30;;;;;;5062728;28;20017;-81
2022/01/25 01:56:43;;;;;;;22.23;15.88;;;7.00;71.30;;;;;;5058251;28;20033;-81
2022/01/25 01:59:14;;;;;;;18.70;13.38;;;7.10;71.20;;;;;;5060081;28;20085;-80
2022/01/25 02:01:42;;;;;;;23.37;16.87;;;7.10;71.30;;;;;;5059678;28;20036;-80
2022/01/25 02:04:10;;;;;;;26.02;18.92;;;7.10;71.30;;;;;;5064330;28;20104;-79
2022/01/25 02:06:35;;;;;;;26.35;19.02;;;7.00;71.20;;;;;;5066230;28;20020;-81
2022/01/25 02:09:02;;;;;;;26.33;19.30;;;7.00;71.20;;;;;;5066641;28;20024;-81
2022/01/25 02:11:27;;;;;;;25.65;18.15;;;7.00;71.10;;;;;;5065896;28;20383;-80
2022/01/25 02:13:53;;;;;;;23.02;16.75;;;7.00;71.20;;;;;;5065685;28;20024;-80
2022/01/25 02:16:54;;;;;;;26.95;18.80;;;7.00;71.30;;;;;;5061925;28;20036;-80
2022/01/25 02:24:48;;;;;;;24.33;16.52;;;6.90;70.80;;;;;;5066050;28;20046;-80
2022/01/25 02:27:14;;;;;;;25.63;18.67;;;6.90;70.80;;;;;;5067860;28;20021;-80
2022/01/25 02:29:40;;;;;;;25.55;18.38;;;6.90;71.00;;;;;;5068482;28;20021;-80
2022/01/25 02:32:07;;;;;;;28.30;20.15;;;7.00;71.10;;;;;;5073240;28;20034;-80
2022/01/25 02:34:32;;;;;;;27.85;19.77;;;7.00;71.00;;;;;;5066024;28;20497;-79
2022/01/25 02:37:05;;;;;;;24.75;16.65;;;6.90;70.90;;;;;;5060407;28;20021;-80
2022/01/25 02:39:31;;;;;;;;;;;7.00;70.90;;;;;;5064039;28;20040;-80
2022/01/25 02:41:57;;;;;;;25.65;17.83;;;7.00;70.80;;;;;;5060549;28;19966;-82
2022/01/25 02:44:25;;;;;;;30.92;21.80;;;6.90;70.80;;;;;;5061775;28;20634;-81
2022/01/25 02:49:18;;;;;;;31.40;21.15;;;6.90;70.80;;;;;;5056819;28;20033;-81
2022/01/25 02:51:46;;;;;;;28.15;19.10;;;7.00;70.70;;;;;;5059347;28;20029;-80
2022/01/25 02:54:13;;;;;;;28.30;18.98;;;7.00;70.70;;;;;;5069663;28;20027;-80
2022/01/25 02:56:42;;;;;;;26.95;18.60;;;6.90;70.60;;;;;;5060801;28;20024;-80
2022/01/25 02:59:09;;;;;;;31.40;21.10;;;6.90;70.80;;;;;;5066802;28;20082;-80
2022/01/25 03:01:36;;;;;;;31.42;20.70;;;6.90;70.80;;;;;;5060865;28;20026;-79
2022/01/25 03:04:02;;;;;;;29.30;19.05;;;6.90;70.80;;;;;;5065159;28;20119;-80
2022/01/25 03:06:28;;;;;;;32.88;22.52;;;6.90;70.80;;;;;;5065859;28;20462;-80
2022/01/25 03:08:54;;;;;;;28.17;19.33;;;6.90;70.80;;;;;;5066504;28;20044;-80
2022/01/25 03:11:22;;;;;;;33.10;22.50;;;7.00;70.90;;;;;;5068266;28;20025;-80
2022/01/25 03:13:52;;;;;;;39.65;26.60;;;6.90;70.70;;;;;;5062037;28;20025;-80
2022/01/25 03:16:31;;;;;;;33.08;22.52;;;6.90;70.60;;;;;;5067890;28;20143;-79
2022/01/25 03:19:00;;;;;;;28.67;19.60;;;6.80;70.70;;;;;;5057148;28;20029;-79
2022/01/25 03:23:53;;;;;;;28.40;18.77;;;6.80;70.80;;;;;;5068869;28;20131;-80
2022/01/25 03:26:19;;;;;;;35.03;22.60;;;6.70;70.90;;;;;;5069788;28;20017;-79
2022/01/25 03:28:45;;;;;;;35.55;22.75;;;6.80;71.00;;;;;;5080127;28;20024;-79
2022/01/25 03:31:12;;;;;;;34.35;21.38;;;6.90;71.00;;;;;;5078607;28;20372;-80
2022/01/25 03:33:37;;;;;;;33.95;21.77;;;6.80;70.90;;;;;;5067510;28;20459;-79
2022/01/25 03:36:03;;;;;;;36.03;22.92;;;6.80;71.00;;;;;;5070109;28;20069;-79
2022/01/25 03:38:29;;;;;;;35.47;21.85;;;6.90;70.90;;;;;;5065886;28;20062;-78
2022/01/25 03:40:55;;;;;;;34.60;22.38;;;7.00;70.80;;;;;;5070281;28;20052;-78
2022/01/25 03:43:21;;;;;;;33.72;21.52;;;7.00;70.70;;;;;;5064542;28;20029;-78
2022/01/25 03:46:00;;;;;;;34.78;22.30;;;6.90;70.70;;;;;;5064335;28;20021;-78
2022/01/25 03:50:51;;;;;;;33.53;21.35;;;6.90;70.70;;;;;;5061958;28;20083;-78
2022/01/25 03:53:18;;;;;;;29.38;18.85;;;6.90;70.60;;;;;;5063847;28;20032;-79
2022/01/25 03:55:45;;;;;;;32.53;20.98;;;6.90;70.60;;;;;;5065911;28;20503;-79
2022/01/25 03:58:11;;;;;;;34.38;22.52;;;6.90;70.60;;;;;;5064635;28;20039;-78
2022/01/25 04:00:38;;;;;;;34.55;21.90;;;6.90;70.50;;;;;;5068517;28;20025;-78
2022/01/25 04:03:32;;;;;;;32.17;20.35;;;6.90;70.50;;;;;;5064560;28;20052;-79
2022/01/25 04:05:52;;;;;;;31.00;19.83;;;6.90;70.60;;;;;;5066875;28;20067;-78
2022/01/25 04:08:19;;;;;;;33.70;21.27;;;6.80;70.70;;;;;;5065963;28;20017;-78
2022/01/25 04:10:46;;;;;;;32.80;20.95;;;6.90;70.80;;;;;;5075165;28;20033;-79
2022/01/25 04:13:12;;;;;;;32.75;20.85;;;6.80;70.80;;;;;;5066332;28;20033;-79
2022/01/25 04:15:41;;;;;;;32.90;20.23;;;6.80;70.80;;;;;;5070056;28;20376;-80
2022/01/25 04:20:40;;;;;;;32.00;21.08;;;6.90;71.40;;;;;;5068516;28;20115;-81
2022/01/25 04:25:50;;;;;;;31.35;20.17;;;6.80;70.80;;;;;;5056864;28;20455;-82
2022/01/25 04:28:15;;;;;;;35.92;22.10;;;6.80;70.80;;;;;;5067119;28;20048;-82
2022/01/25 04:30:41;;;;;;;33.20;21.15;;;6.80;70.90;;;;;;5064249;28;20025;-82
2022/01/25 04:33:18;;;;;;;35.63;21.95;;;6.90;71.00;;;;;;5079250;28;20021;-82
2022/01/25 04:35:57;;;;;;;34.85;20.83;;;6.90;70.90;;;;;;5060530;28;20102;-82
2022/01/25 04:49:29;;;;;;;36.10;22.48;;;6.90;71.00;;;;;;5070371;28;20043;-81
2022/01/25 04:52:01;;;;;;;32.13;21.08;;;6.90;71.00;;;;;;5062482;28;20025;-80
2022/01/25 04:59:58;;;;;;;32.85;20.42;;;6.90;70.90;;;;;;5068142;28;20048;-80
2022/01/25 05:02:41;;;;;;;35.60;22.02;;;6.90;70.80;;;;;;5059604;28;20016;-81
2022/01/25 05:05:14;;;;;;;;;;;6.90;70.70;;;;;;5061724;28;20025;-80
2022/01/25 05:07:54;;;;;;;33.30;20.35;;;6.90;70.60;;;;;;5068776;28;20324;-80
2022/01/25 05:10:20;;;;;;;33.67;20.77;;;6.90;70.70;;;;;;5069019;28;20016;-81
2022/01/25 05:12:52;;;;;;;35.70;21.42;;;6.90;70.60;;;;;;5066980;28;20035;-81
2022/01/25 05:18:15;;;;;;;30.90;18.52;;;6.90;70.60;;;;;;5068393;28;20044;-80
2022/01/25 05:23:24;;;;;;;33.70;20.65;;;6.80;70.90;;;;;;5063785;28;20047;-79
2022/01/25 05:25:50;;;;;;;34.83;21.88;;;6.80;70.80;;;;;;5068420;28;20638;-79
2022/01/25 05:28:16;;;;;;;34.63;20.77;;;6.80;70.80;;;;;;5066292;28;20024;-79
2022/01/25 05:30:41;;;;;;;33.97;21.23;;;6.80;70.80;;;;;;5078267;28;20020;-79
2022/01/25 05:33:07;;;;;;;36.88;23.35;;;6.80;70.80;;;;;;5070090;28;20029;-79
2022/01/25 05:35:32;;;;;;;36.00;22.67;;;6.80;70.80;;;;;;5067797;28;20024;-79
2022/01/25 05:37:58;;;;;;;32.97;20.77;;;6.90;70.80;;;;;;5064275;28;20040;-78
2022/01/25 05:40:39;;;;;;;32.65;20.48;;;6.90;70.60;;;;;;5063688;28;20021;-78
2022/01/25 05:48:20;;;;;;;38.95;24.23;;;6.70;70.80;;;;;;5060917;28;20024;-78
2022/01/25 05:50:45;;;;;;;41.42;25.55;;;6.80;70.90;;;;;;5054657;28;20028;-79
2022/01/25 05:53:11;;;;;;;38.22;22.88;;;6.80;70.80;;;;;;5068219;28;20386;-79
2022/01/25 05:55:37;;;;;;;35.85;22.33;;;6.80;70.60;;;;;;5059184;28;20038;-78
2022/01/25 05:58:02;;;;;;;35.30;22.27;;;6.80;70.80;;;;;;5061337;28;20051;-80
2022/01/25 06:00:28;;;;;;;32.08;20.13;;;6.80;70.90;;;;;;5066190;28;20043;-79
2022/01/25 06:02:55;;;;;;;35.33;22.42;;;6.70;70.80;;;;;;5062490;28;20497;-79
2022/01/25 06:05:23;;;;;;;36.60;22.00;;;6.70;70.90;;;;;;5057464;28;20028;-79
2022/01/25 06:07:51;;;;;;;36.55;22.25;;;6.80;71.00;;;;;;5060004;28;20021;-79
2022/01/25 06:10:17;;;;;;;34.83;21.98;;;6.80;70.90;;;;;;5066916;28;20032;-79
2022/01/25 06:12:44;;;;;;;29.83;18.50;;;6.80;70.80;;;;;;5067395;28;20047;-78
2022/01/25 06:15:11;;;;;;;31.70;20.52;;;6.80;70.80;;;;;;5055725;28;20017;-81
2022/01/25 06:17:37;;;;;;;31.33;18.88;;;6.90;70.70;;;;;;5065648;28;20043;-81
2022/01/25 06:20:04;;;;;;;33.75;21.67;;;6.80;70.60;;;;;;5054691;28;20423;-80
2022/01/25 06:22:30;;;;;;;33.45;20.20;;;6.80;70.60;;;;;;5069219;28;20064;-81
2022/01/25 06:24:56;;;;;;;33.72;20.40;;;6.90;70.60;;;;;;5062982;28;20048;-80
2022/01/25 06:27:21;;;;;;;31.20;20.25;;;6.80;70.60;;;;;;5058997;28;20029;-80
2022/01/25 06:29:47;;;;;;;35.13;22.23;;;6.70;70.60;;;;;;5062420;28;20029;-81
2022/01/25 06:32:13;;;;;;;37.33;22.60;;;6.80;70.70;;;;;;5065553;28;20070;-81
2022/01/25 06:34:39;;;;;;;31.40;19.40;;;6.70;70.60;;;;;;5063658;28;20029;-80
2022/01/25 06:37:04;;;;;;;33.63;21.27;;;6.70;70.50;;;;;;5064792;28;20027;-79
2022/01/25 06:39:30;;;;;;;31.45;20.67;;;6.70;70.60;;;;;;5068792;28;20586;-79
2022/01/25 06:41:56;;;;;;;32.72;20.85;;;6.70;70.60;;;;;;5068360;28;20020;-78
2022/01/25 06:44:21;;;;;;;47.38;29.50;;;6.70;70.60;;;;;;5066381;28;20382;-81
2022/01/25 06:46:47;;;;;;;34.00;21.48;;;6.60;70.40;;;;;;5064136;28;20103;-80
2022/01/25 06:49:14;;;;;;;36.00;22.73;;;6.60;70.60;;;;;;5067493;28;20479;-81
2022/01/25 06:51:40;;;;;;;38.78;22.88;;;6.60;70.80;;;;;;5057774;28;20033;-81
2022/01/25 06:54:07;;;;;;;31.98;19.40;;;6.50;70.80;;;;;;5063887;28;20021;-81
2022/01/25 06:56:32;;;;;;;35.45;21.65;;;6.60;70.80;;;;;;5067066;28;20349;-78
2022/01/25 06:58:58;;;;;;;37.80;23.52;;;6.60;70.70;;;;;;5060477;28;20102;-79
2022/01/25 07:01:24;;;;;;;36.28;22.77;;;6.60;70.70;;;;;;5058968;28;20166;-77
2022/01/25 07:03:49;;;;;;;36.40;22.48;;;6.60;70.70;;;;;;5065596;28;20075;-78
2022/01/25 07:06:15;;;;;;;36.17;22.60;;;6.60;70.50;;;;;;5060215;28;20025;-79
2022/01/25 07:08:44;;;;;;;43.50;27.10;;;6.70;70.50;;;;;;5062091;28;20024;-79
2022/01/25 07:11:09;;;;;;;40.38;24.75;;;6.60;70.10;;;;;;5064487;28;20044;-79
2022/01/25 07:13:35;;;;;;;41.47;25.77;;;6.50;70.20;;;;;;5058351;28;20113;-79
2022/01/25 07:16:00;;;;;;;34.13;21.02;;;6.50;70.40;;;;;;5073470;28;20028;-80
2022/01/25 07:18:26;;;;;;;39.85;24.50;;;6.40;70.30;;;;;;5059065;28;20107;-78
2022/01/25 07:20:51;;;;;;;34.25;21.52;;;6.40;70.40;;;;;;5064418;28;20100;-78
2022/01/25 07:23:17;;;;;;;33.30;20.45;;;6.50;70.50;;;;;;5074159;28;20029;-79
2022/01/25 07:25:42;;;;;;;33.45;19.92;;;6.50;70.50;;;;;;5064963;28;20497;-79
2022/01/25 07:28:08;;;;;;;31.75;20.00;;;6.50;70.50;;;;;;5076396;28;20016;-80
2022/01/25 07:30:33;;;;;;;29.98;18.83;;;6.60;70.50;;;;;;5077346;28;20445;-79
2022/01/25 07:33:05;;;;;;;38.40;24.00;;;6.50;70.40;;;;;;5064418;28;20032;-79
2022/01/25 07:35:32;;;;;;;36.83;22.90;;;6.60;70.50;;;;;;5057960;28;20035;-79
2022/01/25 07:37:57;;;;;;;29.52;18.77;;;6.60;70.30;;;;;;5066650;28;20036;-77
2022/01/25 07:40:23;;;;;;;39.20;24.27;;;6.70;70.40;;;;;;5057120;28;20442;-74
2022/01/25 07:42:48;;;;;;;37.75;22.92;;;6.60;70.20;;;;;;5074596;28;20078;-76
2022/01/25 07:45:14;;;;;;;35.17;21.60;;;6.50;70.30;;;;;;5075141;28;20015;-78
2022/01/25 07:47:40;;;;;;;34.05;20.38;;;6.50;70.30;;;;;;5058182;28;20040;-76
2022/01/25 07:50:08;;;;;;;32.47;19.60;;;6.60;70.40;;;;;;5056711;28;20551;-76
2022/01/25 07:52:33;;;;;;;35.70;21.17;;;6.50;70.30;;;;;;5057714;28;20080;-77
2022/01/25 07:54:59;;;;;;;34.47;20.52;;;6.50;70.30;;;;;;5051247;28;20048;-75
2022/01/25 07:57:25;;;;;;;35.90;22.13;;;6.50;70.30;;;;;;5059933;28;20035;-76
2022/01/25 07:59:51;;;;;;;42.60;26.90;;;6.50;70.30;;;;;;5067535;28;20059;-76
2022/01/25 08:02:19;;;;;;;38.03;23.42;;;6.40;70.00;;;;;;5060556;28;20021;-76
2022/01/25 08:04:45;;;;;;;37.95;22.73;;;6.30;70.30;;;;;;5063633;28;20036;-76
2022/01/25 08:07:11;;;;;;;33.40;20.23;;;6.30;70.50;;;;;;5066884;28;20016;-75
2022/01/25 08:09:37;;;;;;;33.35;20.85;;;6.40;70.50;;;;;;5067196;28;20025;-77
2022/01/25 08:12:03;;;;;;;36.47;22.05;;;6.40;70.50;;;;;;5056394;28;20020;-77
2022/01/25 08:14:29;;;;;;;34.08;20.30;;;6.40;70.50;;;;;;5062143;28;20056;-75
2022/01/25 08:16:54;;;;;;;35.05;21.63;;;6.50;70.40;;;;;;5055607;28;20040;-75
2022/01/25 08:19:20;;;;;;;33.65;20.95;;;6.50;70.50;;;;;;5063046;28;20036;-76
2022/01/25 08:21:46;;;;;;;32.55;20.00;;;6.50;70.50;;;;;;5067475;28;20714;-77
2022/01/25 08:24:14;;;;;;;32.28;19.35;;;6.50;70.50;;;;;;5064163;28;20074;-76
2022/01/25 08:26:43;;;;;;;35.53;21.45;;;6.50;70.60;;;;;;5070118;28;20572;-75
2022/01/25 08:29:09;;;;;;;31.42;18.95;;;6.50;70.60;;;;;;5082330;28;20055;-76
2022/01/25 08:31:36;;;;;;;36.97;22.88;;;6.50;70.60;;;;;;5066403;28;20021;-76
2022/01/25 08:34:02;;;;;;;38.03;21.98;;;6.40;70.50;;;;;;5059996;28;20055;-76
2022/01/25 08:36:28;;;;;;;35.72;20.48;;;6.40;70.60;;;;;;5064974;28;20028;-76
2022/01/25 08:38:54;;;;;;;27.00;17.08;;;6.40;70.70;;;;;;5071209;28;20032;-76
2022/01/25 08:41:20;;;;;;;40.17;24.15;;;6.30;70.70;;;;;;5067992;28;20020;-78
2022/01/25 08:43:46;;;;;;;37.00;22.27;;;6.30;70.70;;;;;;5064886;28;20025;-76
2022/01/25 08:46:13;;;;;;;34.67;20.63;;;6.20;70.80;;;;;;5065342;28;20090;-76
2022/01/25 08:48:38;;;;;;;41.78;26.25;;;6.20;70.80;;;;;;5070352;28;20635;-74
2022/01/25 08:51:04;;;;;;;42.20;24.67;;;6.10;70.70;;;;;;5061886;28;20021;-75
2022/01/25 08:53:30;;;;;;;32.58;20.40;;;6.10;70.80;;;;;;5062970;28;20028;-75
2022/01/25 08:55:56;;;;;;;47.95;28.40;;;6.00;70.80;;;;;;5061166;28;20472;-74
2022/01/25 08:58:22;;;;;;;44.63;27.15;;;5.90;70.80;;;;;;5068487;28;20394;-75
2022/01/25 09:00:47;;;;;;;45.72;27.95;;;5.90;70.90;;;;;;5062577;28;20033;-78
2022/01/25 09:03:13;;;;;;;45.05;27.75;;;5.80;70.80;;;;;;5066654;28;20021;-77
2022/01/25 09:05:39;;;;;;;34.63;21.50;;;5.80;71.10;;;;;;5056736;28;20385;-77
2022/01/25 09:08:05;;;;;;;34.47;21.27;;;5.90;71.20;;;;;;5064206;28;20077;-76
2022/01/25 09:10:31;;;;;;;39.58;23.80;;;5.80;71.10;;;;;;5069552;28;20062;-77
2022/01/25 09:12:58;;;;;;;35.92;21.83;;;5.90;71.30;;;;;;5070631;28;20107;-75
2022/01/25 09:15:23;;;;;;;33.03;20.10;;;5.90;71.20;;;;;;5069621;28;20043;-73
2022/01/25 09:17:49;;;;;;;31.95;19.20;;;5.90;71.30;;;;;;5068897;28;21323;-76
2022/01/25 09:20:15;;;;;;;40.08;24.45;;;6.00;71.30;;;;;;5070274;28;20017;-75
2022/01/25 09:22:41;;;;;;;34.92;20.58;;;5.90;71.00;;;;;;5067423;28;20028;-78
2022/01/25 09:25:07;;;;;;;34.25;19.90;;;5.90;71.10;;;;;;5065625;28;20031;-76
2022/01/25 09:27:33;;;;;;;26.38;15.18;;;6.00;71.10;;;;;;5065837;28;20021;-76
2022/01/25 09:29:58;;;;;;;28.25;17.50;;;6.00;71.20;;;;;;5068030;28;20020;-76
2022/01/25 09:32:24;;;;;;;39.80;23.75;;;5.90;71.10;;;;;;5066863;28;20048;-77
2022/01/25 09:34:49;;;;;;;34.67;20.38;;;5.90;71.20;;;;;;5060656;28;20098;-76
2022/01/25 09:37:15;;;;;;;37.17;22.58;;;5.90;71.30;;;;;;5053308;28;20025;-76
2022/01/25 09:39:41;;;;;;;45.78;27.55;;;6.00;71.30;;;;;;5068407;28;20046;-74
2022/01/25 09:42:11;;;;;;;45.25;26.27;;;5.90;71.20;;;;;;5062937;28;20467;-75
2022/01/25 09:44:38;;;;;;;51.83;30.98;;;5.80;71.30;;;;;;5058725;28;20120;-74
2022/01/25 09:47:05;;;;;;;43.67;26.13;;;5.80;71.40;;;;;;5066754;28;20013;-75
2022/01/25 09:49:32;;;;;;;39.50;23.73;;;5.80;71.50;;;;;;5061519;28;20127;-76
2022/01/25 09:52:02;;;;;;;49.20;29.60;;;5.80;71.60;;;;;;5078173;28;20017;-74
2022/01/25 09:54:30;;;;;;;44.53;25.98;;;5.70;71.50;;;;;;5058005;28;20043;-74
2022/01/25 09:56:55;;;;;;;34.65;19.67;;;5.70;71.60;;;;;;5072082;28;20021;-73
2022/01/25 09:59:21;;;;;;;42.92;25.23;;;5.80;71.70;;;;;;5064215;28;20036;-75
2022/01/25 10:01:47;;;;;;;37.20;22.50;;;5.80;71.60;;;;;;5065247;28;20391;-74
2022/01/25 10:04:41;;;;;;;39.58;23.80;;;5.80;71.70;;;;;;5062652;28;20117;-74
2022/01/25 10:07:10;;;;;;;40.40;23.05;;;5.80;71.60;;;;;;5062447;28;20672;-74
2022/01/25 10:09:40;;;;;;;37.70;22.73;;;5.90;71.70;;;;;;5068536;28;20115;-75
2022/01/25 10:12:20;;;;;;;45.60;27.48;;;5.90;71.70;;;;;;5066160;28;20021;-76
2022/01/25 10:15:09;;;;;;;56.15;32.05;;;5.90;71.70;;;;;;5059002;28;20063;-75
2022/01/25 10:17:36;;;;;;;44.88;26.50;;;5.70;71.50;;;;;;5066691;28;20028;-75
2022/01/25 10:20:04;;;;;;;43.30;26.65;;;5.70;71.80;;;;;;5061437;28;20048;-75
2022/01/25 10:22:41;;;;;;;41.92;23.65;;;5.60;71.90;;;;;;5061535;28;20017;-77
2022/01/25 10:25:08;;;;;;;45.45;26.30;;;5.70;72.00;;;;;;5058941;28;20032;-76
2022/01/25 10:28:10;;;;;;;40.13;23.20;;;5.70;72.00;;;;;;5055316;28;20112;-76
2022/01/25 10:30:47;;;;;;;40.20;22.83;;;5.80;72.00;;;;;;5066787;28;20435;-74
2022/01/25 10:33:27;;;;;;;28.45;17.00;;;5.80;71.80;;;;;;5057588;28;20025;-75
2022/01/25 10:35:54;;;;;;;32.22;19.00;;;5.90;71.70;;;;;;5058972;28;20031;-76
2022/01/25 10:38:24;;;;;;;41.38;24.17;;;5.90;71.50;;;;;;5060063;28;20032;-76
2022/01/25 10:41:04;;;;;;;38.78;22.13;;;5.90;71.40;;;;;;5059081;28;20033;-76
2022/01/25 10:43:31;;;;;;;30.88;17.77;;;6.00;71.50;;;;;;5061204;28;20016;-76
2022/01/25 10:46:30;;;;;;;35.90;20.35;;;6.00;71.50;;;;;;5061046;28;20023;-74
2022/01/25 10:49:03;;;;;;;33.28;19.45;;;6.10;71.50;;;;;;5057543;28;20073;-75
2022/01/25 10:51:38;;;;;;;33.83;19.42;;;6.20;71.40;;;;;;5055265;28;20075;-74
2022/01/25 10:54:11;;;;;;;36.50;20.90;;;6.20;71.40;;;;;;5059586;28;20027;-74
2022/01/25 10:56:43;;;;;;;32.03;19.30;;;6.20;71.20;;;;;;5059452;28;20037;-74
2022/01/25 10:59:15;;;;;;;30.52;17.67;;;6.30;71.20;;;;;;5059563;28;20101;-75
2022/01/25 11:01:49;;;;;;;33.40;19.83;;;6.30;71.10;;;;;;5057102;28;20103;-74
2022/01/25 11:04:18;;;;;;;33.60;19.40;;;6.30;71.10;;;;;;5061157;28;20628;-75
2022/01/25 11:06:44;;;;;;;33.97;19.88;;;6.30;71.10;;;;;;5060581;28;20017;-74
2022/01/25 11:09:13;;;;;;;33.45;18.92;;;6.20;71.10;;;;;;5063340;28;20028;-76
2022/01/25 11:11:45;;;;;;;32.15;18.40;;;6.20;71.20;;;;;;5059486;28;20375;-76
2022/01/25 11:16:59;;;;;;;34.97;20.05;;;6.20;71.20;;;;;;5055515;28;20036;-77
2022/01/25 11:19:25;;;;;;;28.80;16.83;;;6.20;71.30;;;;;;5056081;28;20079;-75
2022/01/25 11:21:53;;;;;;;48.70;28.60;;;6.20;71.30;;;;;;5059949;28;20276;-76
2022/01/25 11:24:20;;;;;;;42.92;25.67;;;6.10;71.00;;;;;;5059986;28;20035;-75
2022/01/25 11:26:48;;;;;;;41.45;25.00;;;6.00;71.20;;;;;;5059865;28;20016;-76
2022/01/25 11:29:15;;;;;;;41.63;25.05;;;6.00;71.30;;;;;;5058849;28;20067;-75
2022/01/25 11:31:46;;;;;;;40.55;23.55;;;6.00;71.50;;;;;;5060164;28;20032;-75
2022/01/25 11:34:13;;;;;;;36.45;21.20;;;6.00;71.70;;;;;;5063190;28;20112;-75
2022/01/25 11:37:07;;;;;;;46.85;26.35;;;6.10;71.60;;;;;;5059503;28;20083;-74
2022/01/25 11:39:35;;;;;;;39.33;22.63;;;6.10;71.50;;;;;;5063026;28;20068;-75
2022/01/25 11:42:10;;;;;;;34.67;20.73;;;6.10;71.50;;;;;;5053508;28;20035;-75
2022/01/25 11:44:46;;;;;;;32.10;19.08;;;6.10;71.50;;;;;;5061341;28;20475;-75
2022/01/25 11:47:16;;;;;;;35.50;19.60;;;6.20;71.50;;;;;;5062874;28;20027;-75
2022/01/25 11:50:11;;;;;;;35.55;20.35;;;6.20;71.40;;;;;;5066586;28;20369;-77
2022/01/25 11:52:52;;;;;;;35.90;20.23;;;6.20;71.20;;;;;;5056935;28;20040;-75
2022/01/25 11:55:28;;;;;;;34.70;19.98;;;6.20;71.20;;;;;;5062248;28;20029;-76
2022/01/25 11:57:59;;;;;;;32.40;18.88;;;6.20;71.20;;;;;;5068718;28;20060;-75
2022/01/25 12:00:45;;;;;;;36.33;20.90;;;6.30;71.30;;;;;;5060885;28;20029;-77
2022/01/25 12:03:32;;;;;;;28.50;16.20;;;6.20;71.30;;;;;;5058441;28;20449;-75
2022/01/25 12:06:05;;;;;;;35.97;20.88;;;6.20;71.20;;;;;;5069230;28;20036;-74
2022/01/25 12:08:41;;;;;;;;;;;6.10;71.10;;;;;;5062398;28;20024;-75
2022/01/25 12:11:37;;;;;;;33.25;19.05;;;6.10;71.20;;;;;;5062755;28;19912;-75
2022/01/25 12:14:14;;;;;;;30.35;17.25;;;6.10;71.30;;;;;;5065823;28;20032;-75
2022/01/25 12:16:44;;;;;;;29.00;16.90;;;6.10;71.30;;;;;;5061103;28;20099;-75
2022/01/25 12:19:12;;;;;;;33.08;18.45;;;6.20;71.30;;;;;;5072775;28;20028;-75
2022/01/25 12:21:52;;;;;;;26.15;15.43;;;6.20;71.20;;;;;;5059566;28;20029;-78
2022/01/25 12:24:40;;;;;;;32.20;18.20;;;6.20;71.20;;;;;;5059831;28;20060;-76
2022/01/25 12:29:42;;;;;;;34.65;19.77;;;6.20;71.20;;;;;;5068810;28;20440;-75
2022/01/25 12:32:33;;;;;;;35.28;21.27;;;6.30;71.20;;;;;;5073365;28;20025;-76
2022/01/25 12:35:12;;;;;;;26.42;15.07;;;6.30;71.20;;;;;;5067025;28;20017;-77
2022/01/25 12:37:44;;;;;;;37.28;21.80;;;6.30;71.10;;;;;;5063790;28;20036;-76
2022/01/25 12:40:25;;;;;;;37.15;20.42;;;6.30;71.00;;;;;;5063614;28;20609;-77
2022/01/25 12:43:26;;;;;;;33.28;18.98;;;6.30;71.80;;;;;;5070365;28;20150;-76
2022/01/25 12:45:59;;;;;;;33.63;18.95;;;6.30;71.30;;;;;;5061971;28;20093;-78
2022/01/25 12:48:28;;;;;;;33.30;19.17;;;6.30;71.30;;;;;;5067797;28;20035;-75
2022/01/25 12:50:56;;;;;;;43.75;25.30;;;6.30;71.30;;;;;;5069293;28;20116;-75
2022/01/25 12:53:28;;;;;;;36.35;22.02;;;6.30;71.10;;;;;;5068580;28;20475;-75
2022/01/25 12:55:58;;;;;;;36.63;21.15;;;6.20;71.00;;;;;;5070672;28;20433;-75
2022/01/25 12:58:28;;;;;;;30.42;17.65;;;6.20;71.20;;;;;;5064983;28;20062;-77
2022/01/25 13:00:57;;;;;;;30.60;18.30;;;6.20;71.30;;;;;;5070036;28;20024;-75
2022/01/25 13:03:53;;;;;;;33.28;19.88;;;6.30;71.30;;;;;;5067629;28;20497;-75
2022/01/25 13:06:24;;;;;;;36.40;20.13;;;6.30;71.20;;;;;;5062000;28;20060;-75
2022/01/25 13:11:26;;;;;;;25.80;14.98;;;6.40;71.10;;;;;;5063648;28;20028;-75
2022/01/25 13:14:04;;;;;;;41.20;24.15;;;6.30;71.00;;;;;;5066005;28;20074;-76
2022/01/25 13:16:45;;;;;;;37.20;21.65;;;6.20;70.70;;;;;;5065954;28;20032;-77
2022/01/25 13:19:11;;;;;;;34.38;19.98;;;6.10;70.80;;;;;;5069083;28;20036;-77
2022/01/25 13:21:48;;;;;;;34.85;20.45;;;6.00;71.00;;;;;;5061326;28;20033;-76
2022/01/25 13:24:17;;;;;;;29.17;17.25;;;6.00;71.10;;;;;;5064371;28;20098;-76
2022/01/25 13:26:55;;;;;;;36.22;21.33;;;6.10;71.20;;;;;;5062338;28;20021;-76
2022/01/25 13:32:19;;;;;;;30.90;18.20;;;6.00;71.40;;;;;;5074581;28;20043;-75
2022/01/25 13:34:58;;;;;;;30.45;17.75;;;6.00;71.30;;;;;;5075045;28;20032;-77
2022/01/25 13:37:24;;;;;;;42.22;23.63;;;6.00;71.30;;;;;;5075674;28;20035;-76
2022/01/25 13:39:59;;;;;;;44.30;25.95;;;5.90;71.10;;;;;;5069103;28;20482;-76
2022/01/25 13:42:39;;;;;;;38.45;22.77;;;5.80;71.30;;;;;;5078971;28;20054;-76
2022/01/25 13:47:57;;;;;;;40.55;23.13;;;5.60;71.50;;;;;;5078151;28;20035;-77
2022/01/25 13:50:22;;;;;;;35.78;19.83;;;5.60;71.80;;;;;;5063922;28;20062;-76
2022/01/25 13:52:50;;;;;;;30.35;17.38;;;5.70;71.90;;;;;;5069159;28;20033;-75
2022/01/25 13:55:16;;;;;;;32.47;18.92;;;5.80;71.80;;;;;;5061526;28;20617;-76
2022/01/25 13:57:42;;;;;;;37.85;21.63;;;5.80;71.60;;;;;;5060148;28;20029;-75
2022/01/25 14:00:10;;;;;;;41.75;24.30;;;5.80;71.60;;;;;;5065304;28;20041;-77
2022/01/25 14:02:35;;;;;;;33.47;18.52;;;5.80;71.40;;;;;;5064903;28;20048;-78
2022/01/25 14:05:02;;;;;;;28.08;16.50;;;5.90;71.40;;;;;;5068068;28;20109;-77
2022/01/25 14:07:27;;;;;;;30.95;17.15;;;5.90;71.40;;;;;;5054674;28;20826;-79
2022/01/25 14:10:17;;;;;;;29.77;16.23;;;5.90;71.40;;;;;;5062393;28;20020;-79
2022/01/25 14:23:45;;;;;;;39.63;23.85;;;6.20;71.00;;;;;;5066850;28;20544;-76
2022/01/25 14:26:11;;;;;;;38.75;22.40;;;6.10;70.60;;;;;;5059061;28;20025;-76
2022/01/25 14:28:41;;;;;;;37.10;21.95;;;5.90;70.80;;;;;;5070724;28;20127;-75
2022/01/25 14:31:20;;;;;;;38.47;21.52;;;5.80;71.00;;;;;;5054921;28;20075;-77
2022/01/25 14:34:09;;;;;;;34.05;19.50;;;5.80;71.20;;;;;;5054103;28;20071;-75
2022/01/25 14:36:39;;;;;;;32.20;18.00;;;5.90;71.40;;;;;;5074158;28;20086;-75
2022/01/25 14:39:05;;;;;;;29.65;17.90;;;5.90;71.90;;;;;;5065792;28;20040;-75
2022/01/25 14:41:32;;;;;;;37.58;22.35;;;6.00;71.80;;;;;;5061802;28;20756;-77
2022/01/25 14:44:06;;;;;;;45.08;26.40;;;6.00;71.00;;;;;;5049560;28;20039;-77
2022/01/25 14:46:46;;;;;;;43.65;24.45;;;5.80;70.80;;;;;;5059755;28;20025;-76
2022/01/25 14:49:20;;;;;;;41.55;24.42;;;5.70;71.10;;;;;;5060171;28;20078;-75